Terminal Aerodrome Forecast
Issued by NWS Twin Cities, MN

Home | Current Version | Previous Version | Graphics & Text | Print | Product List | Glossary On
Versions: 1 2 3 4 5 6 7 8 9 10 11 12 13 14 15 16
192
FTUS43 KMPX 292320
TAFEAU
TAF
KEAU 292320Z 3000/3024 27014G22KT P6SM VCSH OVC045
     FM300100 29010KT P6SM BKN060
     FM301200 27010KT P6SM OVC030
     FM301500 28013G21KT P6SM VCSH OVC025=

USA.gov is the U.S. government's official web portal to all federal, state and local government web resources and services.